createdAt,value
2018-05-16T00:01:52.477Z,99331.19
2018-05-16T00:04:20.118Z,99335.11
2018-05-16T00:06:47.741Z,99350.58
2018-05-16T00:09:15.373Z,99343.83
2018-05-16T00:11:43.002Z,99350.39
2018-05-16T00:14:10.565Z,99344.61
2018-05-16T00:16:38.197Z,99340.76
2018-05-16T00:19:05.755Z,99334.20
2018-05-16T00:21:33.360Z,99349.95
2018-05-16T00:24:00.916Z,99354.49
2018-05-16T00:26:28.481Z,99360.89
2018-05-16T00:28:56.055Z,99373.80
2018-05-16T00:31:23.709Z,99375.20
2018-05-16T00:33:51.273Z,99369.56
2018-05-16T00:36:18.829Z,99380.00
2018-05-16T00:38:46.513Z,99365.08
2018-05-16T00:41:14.073Z,99350.21
2018-05-16T00:43:41.633Z,99365.48
2018-05-16T00:46:09.246Z,99367.09
2018-05-16T00:48:36.902Z,99371.77
2018-05-16T00:51:16.377Z,99369.73
2018-05-16T00:53:44.005Z,99361.97
2018-05-16T00:56:11.684Z,99357.72
2018-05-16T00:58:39.244Z,99348.66
2018-05-16T01:01:06.781Z,99346.88
2018-05-16T01:03:34.405Z,99346.62
2018-05-16T01:06:01.965Z,99336.09
2018-05-16T01:08:29.573Z,99337.30
2018-05-16T01:10:57.197Z,99339.21
2018-05-16T01:13:24.760Z,99328.18
2018-05-16T01:15:52.393Z,99341.16
2018-05-16T01:18:20.010Z,99326.78
2018-05-16T01:20:47.641Z,99325.16
2018-05-16T01:23:15.285Z,99328.88
2018-05-16T01:25:42.849Z,99339.69
2018-05-16T01:28:10.473Z,99323.28
2018-05-16T01:30:38.206Z,99329.67
2018-05-16T01:33:05.785Z,99338.33
2018-05-16T01:35:33.340Z,99330.54
2018-05-16T01:38:00.952Z,99333.10
2018-05-16T01:40:28.508Z,99326.03
2018-05-16T01:42:56.060Z,99340.25
2018-05-16T01:45:23.641Z,99337.94
2018-05-16T01:47:51.200Z,99348.25
2018-05-16T01:50:18.901Z,99350.11
2018-05-16T01:52:46.528Z,99351.02
2018-05-16T01:55:14.140Z,99338.94
2018-05-16T01:57:41.761Z,99340.66
2018-05-16T02:00:09.320Z,99337.02
2018-05-16T02:02:36.869Z,99338.59
2018-05-16T02:05:04.470Z,99342.05
2018-05-16T02:07:32.039Z,99353.58
2018-05-16T02:09:59.661Z,99350.34
2018-05-16T02:12:27.268Z,99351.30
2018-05-16T02:14:54.860Z,99358.57
2018-05-16T02:17:22.415Z,99365.79
2018-05-16T02:19:49.985Z,99369.30
2018-05-16T02:22:17.541Z,99367.40
2018-05-16T02:24:45.105Z,99360.33
2018-05-16T02:27:12.664Z,99353.58
2018-05-16T02:29:40.291Z,99357.25
2018-05-16T02:32:07.857Z,99345.08
2018-05-16T02:34:35.413Z,99348.36
2018-05-16T02:37:03.046Z,99350.48
2018-05-16T02:39:30.646Z,99351.06
2018-05-16T02:41:58.215Z,99354.61
2018-05-16T02:44:25.772Z,99357.01
2018-05-16T02:46:53.382Z,99358.73
2018-05-16T02:49:21.001Z,99368.93
2018-05-16T02:51:48.575Z,99363.80
2018-05-16T02:54:16.287Z,99364.04
2018-05-16T02:56:43.869Z,99364.14
2018-05-16T02:59:11.498Z,99367.05
2018-05-16T03:01:39.062Z,99378.91
2018-05-16T03:04:06.749Z,99388.34
2018-05-16T03:06:34.382Z,99377.13
2018-05-16T03:09:01.955Z,99372.16
2018-05-16T03:11:29.597Z,99377.78
2018-05-16T03:13:57.190Z,99372.88
2018-05-16T03:16:24.758Z,99376.66
2018-05-16T03:18:52.569Z,99383.41
2018-05-16T03:21:20.196Z,99377.10
2018-05-16T03:23:47.756Z,99382.87
2018-05-16T03:26:15.316Z,99388.12
2018-05-16T03:28:42.876Z,99380.59
2018-05-16T03:31:10.445Z,99388.66
2018-05-16T03:33:38.008Z,99387.92
2018-05-16T03:36:05.569Z,99400.84
2018-05-16T03:38:33.197Z,99415.92
2018-05-16T03:41:00.832Z,99421.59
2018-05-16T03:43:28.459Z,99418.44
2018-05-16T03:45:56.029Z,99416.14
2018-05-16T03:48:23.657Z,99424.92
2018-05-16T03:50:51.225Z,99419.84
2018-05-16T03:53:18.784Z,99432.39
2018-05-16T03:55:46.464Z,99445.02
2018-05-16T03:58:25.929Z,99448.66
2018-05-16T04:01:05.319Z,99449.88
2018-05-16T04:03:44.765Z,99451.45
2018-05-16T04:06:12.332Z,99461.38
2018-05-16T04:08:39.892Z,99474.64
2018-05-16T04:11:07.562Z,99480.05
2018-05-16T04:13:35.248Z,99483.69
2018-05-16T04:16:02.723Z,99485.16
2018-05-16T04:18:30.400Z,99484.00
2018-05-16T04:20:58.895Z,99492.95
2018-05-16T04:23:26.461Z,99496.23
2018-05-16T04:25:54.868Z,99511.45
2018-05-16T04:28:22.489Z,99519.52
2018-05-16T04:30:50.065Z,99515.09
2018-05-16T04:33:17.621Z,99517.98
2018-05-16T04:35:45.192Z,99522.55
2018-05-16T04:38:12.801Z,99540.59
2018-05-16T04:40:40.351Z,99542.08
2018-05-16T04:43:07.981Z,99549.77
2018-05-16T04:45:35.601Z,99539.08
2018-05-16T04:48:03.156Z,99554.88
2018-05-16T04:50:30.717Z,99563.53
2018-05-16T04:52:58.281Z,99573.81
2018-05-16T04:55:25.852Z,99588.57
2018-05-16T04:57:53.453Z,99588.77
2018-05-16T05:00:21.064Z,99592.58
2018-05-16T05:02:48.628Z,99601.25
2018-05-16T05:05:16.198Z,99603.56
2018-05-16T05:07:43.825Z,99601.64
2018-05-16T05:10:11.397Z,99599.92
2018-05-16T05:12:39.065Z,99618.31
2018-05-16T05:15:06.625Z,99620.52
2018-05-16T05:17:34.189Z,99620.56
2018-05-16T05:20:01.761Z,99630.47
2018-05-16T05:22:29.325Z,99639.25
2018-05-16T05:24:56.935Z,99642.34
2018-05-16T05:27:24.500Z,99651.38
2018-05-16T05:29:52.102Z,99656.34
2018-05-16T05:32:19.693Z,99658.91
2018-05-16T05:34:47.233Z,99660.59
2018-05-16T05:37:14.856Z,99661.79
2018-05-16T05:39:42.412Z,99663.23
2018-05-16T05:42:10.089Z,99660.05
2018-05-16T05:44:37.657Z,99662.04
2018-05-16T05:47:05.212Z,99668.95
2018-05-16T05:49:32.842Z,99678.66
2018-05-16T05:52:00.405Z,99680.73
2018-05-16T05:54:28.025Z,99678.45
2018-05-16T05:56:55.630Z,99682.19
2018-05-16T05:59:23.188Z,99677.98
2018-05-16T06:01:50.860Z,99681.03
2018-05-16T06:04:18.491Z,99680.30
2018-05-16T06:06:46.052Z,99677.87
2018-05-16T06:09:13.642Z,99683.11
2018-05-16T06:11:41.204Z,99685.88
2018-05-16T06:14:08.985Z,99680.35
2018-05-16T06:16:36.537Z,99676.81
2018-05-16T06:19:04.253Z,99672.58
2018-05-16T06:21:31.820Z,99679.10
2018-05-16T06:23:59.386Z,99680.47
2018-05-16T06:26:27.088Z,99680.99
2018-05-16T06:28:54.648Z,99682.19
2018-05-16T06:31:22.207Z,99693.41
2018-05-16T06:33:49.792Z,99694.02
2018-05-16T06:36:17.358Z,99693.33
2018-05-16T06:38:44.963Z,99696.37
2018-05-16T06:41:12.516Z,99694.83
2018-05-16T06:43:40.097Z,99690.79
2018-05-16T06:46:07.655Z,99703.82
2018-05-16T06:48:35.213Z,99703.95
2018-05-16T06:51:02.845Z,99707.59
2018-05-16T06:53:30.400Z,99709.75
2018-05-16T06:55:57.972Z,99705.45
2018-05-16T06:58:25.592Z,99704.67
2018-05-16T07:00:53.156Z,99710.80
2018-05-16T07:03:20.721Z,99706.53
2018-05-16T07:05:48.316Z,99704.95
2018-05-16T07:08:15.868Z,99709.06
2018-05-16T07:10:43.456Z,99712.19
2018-05-16T07:13:11.040Z,99715.59
2018-05-16T07:15:38.618Z,99711.53
2018-05-16T07:18:06.184Z,99714.98
2018-05-16T07:20:33.739Z,99716.09
2018-05-16T07:23:01.292Z,99717.94
2018-05-16T07:25:28.840Z,99718.01
2018-05-16T07:27:56.612Z,99716.87
2018-05-16T07:30:24.180Z,99714.56
2018-05-16T07:32:51.736Z,99718.13
2018-05-16T07:35:19.300Z,99714.44
2018-05-16T07:37:46.856Z,99719.55
2018-05-16T07:40:14.420Z,99718.69
2018-05-16T07:42:42.028Z,99724.36
2018-05-16T07:45:09.624Z,99725.70
2018-05-16T07:47:37.252Z,99726.19
2018-05-16T07:50:04.840Z,99724.89
2018-05-16T07:52:32.409Z,99722.75
2018-05-16T07:54:59.965Z,99727.29
2018-05-16T07:57:27.536Z,99734.39
2018-05-16T07:59:55.101Z,99726.27
2018-05-16T08:02:22.691Z,99735.21
2018-05-16T08:04:50.248Z,99730.50
2018-05-16T08:07:17.810Z,99728.17
2018-05-16T08:09:45.380Z,99721.91
2018-05-16T08:12:12.985Z,99733.11
2018-05-16T08:14:40.537Z,99734.16
2018-05-16T08:17:08.079Z,99737.12
2018-05-16T08:19:35.650Z,99738.97
2018-05-16T08:22:03.200Z,99733.95
2018-05-16T08:24:30.757Z,99740.32
2018-05-16T08:26:58.320Z,99738.84
2018-05-16T08:29:25.880Z,99735.02
2018-05-16T08:31:53.459Z,99739.48
2018-05-16T08:34:21.037Z,99739.43
2018-05-16T08:36:48.644Z,99741.37
2018-05-16T08:39:16.201Z,99739.34
2018-05-16T08:41:43.782Z,99744.33
2018-05-16T08:44:11.361Z,99738.48
2018-05-16T08:46:38.933Z,99743.16
2018-05-16T08:49:06.504Z,99741.82
2018-05-16T08:51:34.074Z,99743.92
2018-05-16T08:54:01.680Z,99746.45
2018-05-16T08:56:29.240Z,99743.79
2018-05-16T08:58:56.800Z,99737.24
2018-05-16T09:01:24.377Z,99737.41
2018-05-16T09:03:52.270Z,99739.99
2018-05-16T09:06:19.836Z,99733.45
2018-05-16T09:08:47.396Z,99730.69
2018-05-16T09:11:15.001Z,99730.95
2018-05-16T09:13:42.568Z,99736.28
2018-05-16T09:16:10.109Z,99727.83
2018-05-16T09:18:37.685Z,99731.98
2018-05-16T09:21:05.245Z,99727.26
2018-05-16T09:23:32.812Z,99725.66
2018-05-16T09:26:00.368Z,99719.37
2018-05-16T09:28:27.954Z,99724.44
2018-05-16T09:30:55.504Z,99727.80
2018-05-16T09:33:23.060Z,99729.22
2018-05-16T09:35:50.639Z,99718.36
2018-05-16T09:38:18.206Z,99728.89
2018-05-16T09:40:45.781Z,99727.99
2018-05-16T09:43:13.351Z,99725.92
2018-05-16T09:45:40.979Z,99721.72
2018-05-16T09:48:08.541Z,99726.44
2018-05-16T09:50:36.156Z,99730.17
2018-05-16T09:53:03.720Z,99734.66
2018-05-16T09:55:31.372Z,99732.42
2018-05-16T09:57:59.034Z,99729.30
2018-05-16T10:00:30.562Z,99734.86
2018-05-16T10:02:58.173Z,99737.66
2018-05-16T10:05:25.728Z,99732.64
2018-05-16T10:07:53.288Z,99729.45
2018-05-16T10:10:21.007Z,99732.05
2018-05-16T10:12:48.563Z,99731.04
2018-05-16T10:15:16.157Z,99731.90
2018-05-16T10:17:43.727Z,99722.41
2018-05-16T10:20:11.375Z,99727.47
2018-05-16T10:22:38.879Z,99730.52
2018-05-16T10:25:06.437Z,99729.06
2018-05-16T10:27:34.035Z,99728.58
2018-05-16T10:30:01.597Z,99720.89
2018-05-16T10:32:29.148Z,99717.55
2018-05-16T10:34:56.707Z,99720.17
2018-05-16T10:37:24.276Z,99723.55
2018-05-16T10:39:51.869Z,99718.00
2018-05-16T10:42:19.424Z,99714.07
2018-05-16T10:44:46.989Z,99718.72
2018-05-16T10:47:14.560Z,99718.27
2018-05-16T10:49:42.112Z,99711.35
2018-05-16T10:52:09.721Z,99708.17
2018-05-16T10:54:38.224Z,99704.98
2018-05-16T10:57:06.569Z,99704.42
2018-05-16T10:59:34.138Z,99698.41
2018-05-16T11:02:01.696Z,99704.23
2018-05-16T11:04:29.293Z,99704.13
2018-05-16T11:06:56.874Z,99710.45
2018-05-16T11:09:24.457Z,99705.33
2018-05-16T11:11:52.020Z,99709.61
2018-05-16T11:14:19.577Z,99707.00
2018-05-16T11:16:47.175Z,99710.38
2018-05-16T11:19:14.741Z,99703.89
2018-05-16T11:21:42.300Z,99710.00
2018-05-16T11:24:09.868Z,99700.45
2018-05-16T11:26:37.420Z,99702.51
2018-05-16T11:29:05.021Z,99693.72
2018-05-16T11:31:32.561Z,99698.23
2018-05-16T11:34:00.125Z,99701.88
2018-05-16T11:36:27.701Z,99696.92
2018-05-16T11:38:55.321Z,99701.89
2018-05-16T11:41:22.933Z,99705.77
2018-05-16T11:43:50.493Z,99698.08
2018-05-16T11:46:18.113Z,99700.38
2018-05-16T11:48:45.751Z,99692.12
2018-05-16T11:51:13.248Z,99695.13
2018-05-16T11:53:40.857Z,99700.53
2018-05-16T11:56:08.543Z,99689.98
2018-05-16T11:58:36.100Z,99691.69
2018-05-16T12:01:03.697Z,99694.45
2018-05-16T12:03:31.317Z,99692.12
2018-05-16T12:05:58.933Z,99707.36
2018-05-16T12:08:26.550Z,99714.04
2018-05-16T12:10:54.149Z,99717.12
2018-05-16T12:13:21.724Z,99712.05
2018-05-16T12:15:49.281Z,99703.01
2018-05-16T12:18:16.903Z,99698.06
2018-05-16T12:20:44.536Z,99691.73
2018-05-16T12:23:12.160Z,99689.66
2018-05-16T12:25:39.797Z,99697.31
2018-05-16T12:28:07.376Z,99693.44
2018-05-16T12:30:35.064Z,99690.81
2018-05-16T12:33:02.624Z,99676.60
2018-05-16T12:35:30.389Z,99679.36
2018-05-16T12:37:58.014Z,99669.81
2018-05-16T12:40:25.572Z,99665.48
2018-05-16T12:43:05.009Z,99666.80
2018-05-16T12:45:32.626Z,99665.33
2018-05-16T12:48:00.188Z,99660.36
2018-05-16T12:50:27.753Z,99666.23
2018-05-16T12:52:55.387Z,99658.42
2018-05-16T12:55:23.013Z,99657.16
2018-05-16T12:57:50.557Z,99657.17
2018-05-16T13:00:18.124Z,99658.99
2018-05-16T13:02:45.706Z,99649.94
2018-05-16T13:05:13.325Z,99648.45
2018-05-16T13:07:40.942Z,99653.66
2018-05-16T13:10:08.482Z,99652.28
2018-05-16T13:12:36.047Z,99638.96
2018-05-16T13:15:03.639Z,99645.85
2018-05-16T13:17:31.210Z,99650.15
2018-05-16T13:19:58.907Z,99652.84
2018-05-16T13:22:26.534Z,99658.95
2018-05-16T13:24:54.163Z,99664.41
2018-05-16T13:27:21.724Z,99663.41
2018-05-16T13:29:49.344Z,99666.30
2018-05-16T13:32:17.072Z,99660.80
2018-05-16T13:34:44.654Z,99659.17
2018-05-16T13:37:12.227Z,99673.00
2018-05-16T13:39:39.813Z,99661.71
2018-05-16T13:42:07.373Z,99662.81
2018-05-16T13:44:35.045Z,99665.79
2018-05-16T13:47:02.710Z,99658.09
2018-05-16T13:49:30.333Z,99652.06
2018-05-16T13:51:57.888Z,99662.20
2018-05-16T13:54:25.445Z,99659.73
2018-05-16T13:56:53.053Z,99662.50
2018-05-16T13:59:20.669Z,99659.22
2018-05-16T14:01:48.297Z,99652.64
2018-05-16T14:04:15.930Z,99654.52
2018-05-16T14:06:43.497Z,99642.84
2018-05-16T14:09:11.045Z,99637.44
2018-05-16T14:11:38.596Z,99629.70
2018-05-16T14:14:06.269Z,99628.41
2018-05-16T14:16:33.823Z,99630.56
2018-05-16T14:19:01.369Z,99632.27
2018-05-16T14:21:28.959Z,99623.25
2018-05-16T14:23:56.581Z,99613.63
2018-05-16T14:26:24.122Z,99624.62
2018-05-16T14:28:51.741Z,99622.70
2018-05-16T14:31:19.357Z,99620.63
2018-05-16T14:33:46.912Z,99619.80
2018-05-16T14:36:14.555Z,99624.50
2018-05-16T14:38:42.157Z,99624.69
2018-05-16T14:41:09.737Z,99625.23
2018-05-16T14:43:37.313Z,99625.38
2018-05-16T14:46:04.941Z,99629.61
2018-05-16T14:48:32.616Z,99639.38
2018-05-16T14:51:00.152Z,99638.60
2018-05-16T14:53:27.708Z,99631.88
2018-05-16T14:55:55.353Z,99629.45
2018-05-16T14:58:22.983Z,99646.36
2018-05-16T15:00:50.653Z,99649.69
2018-05-16T15:03:18.273Z,99645.44
2018-05-16T15:05:45.901Z,99650.27
2018-05-16T15:08:13.471Z,99651.51
2018-05-16T15:10:41.099Z,99650.44
2018-05-16T15:13:08.677Z,99652.73
2018-05-16T15:15:36.238Z,99652.54
2018-05-16T15:18:03.818Z,99657.70
2018-05-16T15:20:31.439Z,99663.21
2018-05-16T15:22:59.080Z,99661.14
2018-05-16T15:25:26.705Z,99656.30
2018-05-16T15:27:54.276Z,99653.64
2018-05-16T15:30:21.845Z,99653.86
2018-05-16T15:32:49.413Z,99647.27
2018-05-16T15:35:16.980Z,99646.58
2018-05-16T15:37:44.541Z,99644.72
2018-05-16T15:40:12.156Z,99640.58
2018-05-16T15:42:39.775Z,99637.68
2018-05-16T15:45:07.347Z,99637.52
2018-05-16T15:47:35.001Z,99640.20
2018-05-16T15:50:02.621Z,99638.02
2018-05-16T15:52:30.204Z,99639.20
2018-05-16T15:54:57.760Z,99632.95
2018-05-16T15:57:25.445Z,99634.33
2018-05-16T15:59:53.005Z,99623.69
2018-05-16T16:02:20.568Z,99628.66
2018-05-16T16:04:48.167Z,99629.13
2018-05-16T16:07:15.774Z,99632.70
2018-05-16T16:09:43.354Z,99633.84
2018-05-16T16:12:10.938Z,99627.92
2018-05-16T16:14:38.617Z,99633.86
2018-05-16T16:17:06.321Z,99645.88
2018-05-16T16:19:33.885Z,99643.53
2018-05-16T16:22:01.586Z,99648.11
2018-05-16T16:24:29.197Z,99649.25
2018-05-16T16:26:56.770Z,99647.31
2018-05-16T16:29:24.328Z,99648.30
2018-05-16T16:31:51.955Z,99655.18
2018-05-16T16:34:19.522Z,99653.00
2018-05-16T16:36:47.081Z,99655.07
2018-05-16T16:39:14.716Z,99657.11
2018-05-16T16:41:42.289Z,99661.79
2018-05-16T16:44:09.927Z,99663.46
2018-05-16T16:46:37.549Z,99656.19
2018-05-16T16:49:05.232Z,99658.37
2018-05-16T16:51:32.885Z,99662.77
2018-05-16T16:54:00.471Z,99665.24
2018-05-16T16:56:28.668Z,99670.77
2018-05-16T16:58:56.235Z,99679.02
2018-05-16T17:01:23.797Z,99690.98
2018-05-16T17:03:51.421Z,99699.78
2018-05-16T17:06:19.034Z,99696.87
2018-05-16T17:08:46.649Z,99697.42
2018-05-16T17:11:14.274Z,99692.61
2018-05-16T17:13:41.897Z,99688.77
2018-05-16T17:16:09.504Z,99681.21
2018-05-16T17:18:37.141Z,99689.57
2018-05-16T17:21:04.762Z,99688.19
2018-05-16T17:23:32.376Z,99694.23
2018-05-16T17:25:59.951Z,99694.64
2018-05-16T17:28:27.504Z,99694.50
2018-05-16T17:30:55.146Z,99697.31
2018-05-16T17:33:22.949Z,99704.55
2018-05-16T17:35:50.573Z,99707.98
2018-05-16T17:38:18.195Z,99700.95
2018-05-16T17:40:45.811Z,99694.20
2018-05-16T17:43:13.372Z,99699.42
2018-05-16T17:45:40.932Z,99700.36
2018-05-16T17:48:08.500Z,99701.28
2018-05-16T17:50:36.059Z,99707.33
2018-05-16T17:53:03.685Z,99712.09
2018-05-16T17:55:31.945Z,99706.56
2018-05-16T17:57:59.572Z,99700.30
2018-05-16T18:00:27.138Z,99714.94
2018-05-16T18:02:54.693Z,99716.63
2018-05-16T18:05:22.332Z,99715.01
2018-05-16T18:07:49.901Z,99718.40
2018-05-16T18:10:17.528Z,99718.41
2018-05-16T18:15:56.693Z,99741.16
2018-05-16T18:18:24.245Z,99751.33
2018-05-16T18:20:51.872Z,99759.52
2018-05-16T18:23:19.437Z,99760.89
2018-05-16T18:25:47.061Z,99761.50
2018-05-16T18:28:14.607Z,99760.44
2018-05-16T18:30:42.195Z,99762.52
2018-05-16T18:33:09.773Z,99768.57
2018-05-16T18:35:37.324Z,99774.88
2018-05-16T18:38:04.953Z,99781.13
2018-05-16T18:40:32.577Z,99781.67
2018-05-16T18:43:00.149Z,99783.66
2018-05-16T18:45:27.737Z,99786.08
2018-05-16T18:47:55.377Z,99790.73
2018-05-16T18:50:23.016Z,99792.48
2018-05-16T18:52:50.604Z,99798.69
2018-05-16T18:55:18.239Z,99795.97
2018-05-16T18:57:45.865Z,99794.45
2018-05-16T19:00:13.485Z,99802.92
2018-05-16T19:02:41.056Z,99812.47
2018-05-16T19:05:08.678Z,99817.36
2018-05-16T19:07:36.246Z,99814.87
2018-05-16T19:10:03.829Z,99813.41
2018-05-16T19:12:31.462Z,99815.56
2018-05-16T19:14:59.001Z,99810.19
2018-05-16T19:17:26.621Z,99808.72
2018-05-16T19:19:54.283Z,99807.08
2018-05-16T19:22:21.815Z,99810.02
2018-05-16T19:24:49.384Z,99803.13
2018-05-16T19:27:18.313Z,99809.55
2018-05-16T19:29:45.932Z,99815.61
2018-05-16T19:32:13.633Z,99812.81
2018-05-16T19:34:41.189Z,99817.20
2018-05-16T19:37:08.789Z,99818.16
2018-05-16T19:39:36.356Z,99817.34
2018-05-16T19:42:03.934Z,99820.38
2018-05-16T19:44:31.497Z,99814.30
2018-05-16T19:46:59.118Z,99813.30
2018-05-16T19:49:26.680Z,99816.80
2018-05-16T19:51:54.312Z,99817.37
2018-05-16T19:54:21.891Z,99818.55
2018-05-16T19:56:49.514Z,99820.33
2018-05-16T19:59:17.084Z,99813.20
2018-05-16T20:01:44.701Z,99821.70
2018-05-16T20:04:12.380Z,99829.73
2018-05-16T20:06:40.000Z,99831.03
2018-05-16T20:09:07.617Z,99837.23
2018-05-16T20:11:35.188Z,99838.52
2018-05-16T20:14:02.745Z,99841.91
2018-05-16T20:16:30.360Z,99835.13
2018-05-16T20:18:57.925Z,99837.25
2018-05-16T20:21:25.546Z,99843.61
2018-05-16T20:23:53.120Z,99847.34
2018-05-16T20:26:20.677Z,99836.00
2018-05-16T20:28:48.261Z,99828.49
2018-05-16T20:31:15.877Z,99831.45
2018-05-16T20:33:43.428Z,99825.73
2018-05-16T20:36:11.027Z,99821.51
2018-05-16T20:38:38.584Z,99812.51
2018-05-16T20:41:06.236Z,99821.72
2018-05-16T20:43:33.807Z,99821.89
2018-05-16T20:46:01.429Z,99822.55
2018-05-16T20:48:29.041Z,99826.20
2018-05-16T20:50:56.596Z,99821.47
2018-05-16T20:53:24.162Z,99824.93
2018-05-16T20:55:51.716Z,99816.72
2018-05-16T20:58:19.359Z,99823.31
2018-05-16T21:00:46.987Z,99826.09
2018-05-16T21:03:14.601Z,99818.42
2018-05-16T21:05:42.222Z,99826.47
2018-05-16T21:08:09.841Z,99829.66
2018-05-16T21:10:37.412Z,99824.56
2018-05-16T21:13:05.033Z,99821.98
2018-05-16T21:15:32.597Z,99820.20
2018-05-16T21:18:00.213Z,99815.39
2018-05-16T21:20:27.962Z,99823.69
2018-05-16T21:22:55.520Z,99829.70
2018-05-16T21:25:23.118Z,99832.84
2018-05-16T21:27:50.684Z,99836.14
2018-05-16T21:30:18.314Z,99839.98
2018-05-16T21:32:45.957Z,99845.06
2018-05-16T21:35:13.581Z,99855.66
2018-05-16T21:37:41.218Z,99852.48
2018-05-16T21:40:08.780Z,99841.77
2018-05-16T21:42:36.352Z,99830.50
2018-05-16T21:45:04.023Z,99821.72
2018-05-16T21:47:31.580Z,99820.43
2018-05-16T21:49:59.206Z,99819.81
2018-05-16T21:52:26.760Z,99833.52
2018-05-16T21:54:54.381Z,99831.17
2018-05-16T21:57:21.922Z,99820.88
2018-05-16T21:59:49.564Z,99815.91
2018-05-16T22:02:17.233Z,99814.24
2018-05-16T22:04:44.867Z,99813.02
2018-05-16T22:07:12.440Z,99819.73
2018-05-16T22:09:40.006Z,99826.27
2018-05-16T22:12:07.704Z,99831.86
2018-05-16T22:14:35.274Z,99839.69
2018-05-16T22:17:02.832Z,99835.31
2018-05-16T22:19:30.426Z,99841.47
2018-05-16T22:21:57.993Z,99842.89
2018-05-16T22:24:25.556Z,99828.28
2018-05-16T22:26:53.109Z,99832.45
2018-05-16T22:29:20.705Z,99815.26
2018-05-16T22:31:53.722Z,99807.72
2018-05-16T22:34:26.848Z,99813.86
2018-05-16T22:36:59.848Z,99812.55
2018-05-16T22:39:33.114Z,99818.64
2018-05-16T22:42:06.240Z,99813.38
2018-05-16T22:44:39.362Z,99810.50
2018-05-16T22:47:06.924Z,99810.55
2018-05-16T22:49:34.494Z,99812.73
2018-05-16T22:52:02.071Z,99808.34
2018-05-16T22:54:29.643Z,99800.32
2018-05-16T22:56:57.216Z,99790.67
2018-05-16T22:59:24.791Z,99787.75
2018-05-16T23:01:52.441Z,99792.58
2018-05-16T23:04:19.996Z,99793.84
2018-05-16T23:06:47.552Z,99785.86
2018-05-16T23:09:15.126Z,99794.23
2018-05-16T23:11:42.688Z,99798.30
2018-05-16T23:14:10.252Z,99802.53
2018-05-16T23:16:37.804Z,99801.34
2018-05-16T23:19:05.494Z,99806.61
2018-05-16T23:21:33.094Z,99807.12
2018-05-16T23:24:00.671Z,99799.16
2018-05-16T23:26:28.236Z,99789.69
2018-05-16T23:28:55.850Z,99790.72
2018-05-16T23:31:23.412Z,99793.17
2018-05-16T23:33:50.964Z,99782.41
2018-05-16T23:36:18.581Z,99792.80
2018-05-16T23:38:46.133Z,99794.67
2018-05-16T23:41:13.730Z,99794.13
2018-05-16T23:43:41.367Z,99791.77
2018-05-16T23:46:09.002Z,99796.27
2018-05-16T23:48:36.672Z,99795.47
2018-05-16T23:51:04.228Z,99784.16
2018-05-16T23:53:31.844Z,99779.25
2018-05-16T23:55:59.402Z,99774.97
2018-05-16T23:58:27.017Z,99776.94
